Terminal Aerodrome Forecast
Issued by NWS Blacksburg, VA

Current Version | Previous Version | Text Only | Print | Product List | Glossary Off
Versions: 1 2 3 4 5 6 7 8 9 10 11 12 13 14 15 16 17 18 19 20 21 22 23 24 25 26

000
FTUS41 KRNK 280338 AAA
TAFBLF
TAF AMD
KBLF 280338Z 2804/2824 VRB03KT 3SM BR BKN100
      TEMPO 2804/2808 1 1/2SM BR SCT002
     FM281300 27005KT P6SM BKN060
     FM281800 24007KT P6SM VCTS BKN050CB=

USA.gov is the U.S. government's official web portal to all federal, state and local government web resources and services.